Time;durP1;ratioP1;P1;durP2;ratioP2;P2;SDS_P1;SDS_P2;PMS_P1;PMS_P2;Temp;Humidity;BMP_temperature;BMP_pressure;BME280_temperature;BME280_humidity;BME280_pressure;Samples;Min_cycle;Max_cycle;Signal;HPM_P1;HPM_P2
2020/12/31 00:01:26;;;;;;;31.85;14.50;;;;;;;9.24;87.55;99912.97;1783953;80;21234;-52
2020/12/31 00:03:53;;;;;;;25.57;14.75;;;;;;;9.22;87.61;99916.55;1783931;80;21603;-52
2020/12/31 00:06:21;;;;;;;32.03;13.70;;;;;;;9.22;87.64;99917.11;1784022;79;21395;-52
2020/12/31 00:08:48;;;;;;;32.67;13.48;;;;;;;9.20;87.73;99918.72;1790236;79;20936;-52
2020/12/31 00:11:16;;;;;;;22.13;13.50;;;;;;;9.21;87.83;99920.38;1795959;79;20985;-52
2020/12/31 00:13:43;;;;;;;26.75;13.65;;;;;;;9.22;87.89;99912.44;1795803;79;21040;-52
2020/12/31 00:16:11;;;;;;;24.67;13.05;;;;;;;9.23;87.84;99914.09;1795742;79;21049;-52
2020/12/31 00:18:39;;;;;;;26.77;13.45;;;;;;;9.21;87.91;99909.41;1795974;79;21195;-52
2020/12/31 00:21:06;;;;;;;21.07;12.58;;;;;;;9.20;87.98;99909.69;1795937;79;20981;-52
2020/12/31 00:23:33;;;;;;;24.92;13.88;;;;;;;9.16;88.02;99911.63;1795973;79;21032;-51
2020/12/31 00:26:01;;;;;;;27.40;13.98;;;;;;;9.13;88.16;99908.59;1795774;79;20977;-52
2020/12/31 00:28:28;;;;;;;24.60;13.40;;;;;;;9.13;88.27;99916.81;1795964;79;21005;-52
2020/12/31 00:30:56;;;;;;;32.67;14.83;;;;;;;9.13;88.32;99914.92;1795995;79;21235;-51
2020/12/31 00:33:23;;;;;;;19.92;11.43;;;;;;;9.14;88.36;99913.80;1795877;79;21164;-52
2020/12/31 00:35:57;;;;;;;20.97;11.03;;;;;;;9.14;88.35;99912.99;1795928;79;21005;-52
2020/12/31 00:38:25;;;;;;;21.82;12.30;;;;;;;9.13;88.35;99914.08;1796124;79;21008;-52
2020/12/31 00:40:52;;;;;;;26.35;13.90;;;;;;;9.10;88.40;99918.22;1795835;79;21021;-51
2020/12/31 00:43:21;;;;;;;27.45;15.25;;;;;;;9.12;88.45;99919.31;1795966;79;21425;-52
2020/12/31 00:45:48;;;;;;;27.37;13.78;;;;;;;9.12;88.40;99915.20;1795641;79;20965;-52
2020/12/31 00:48:16;;;;;;;33.23;15.25;;;;;;;9.10;88.45;99914.64;1795897;79;21013;-52
2020/12/31 00:50:43;;;;;;;24.52;13.10;;;;;;;9.10;88.48;99914.64;1795794;79;21001;-52
2020/12/31 00:53:12;;;;;;;27.60;13.25;;;;;;;9.10;88.46;99917.37;1795782;79;21048;-52
2020/12/31 00:55:40;;;;;;;26.75;13.90;;;;;;;9.09;88.44;99917.13;1795895;79;21194;-52
2020/12/31 00:58:08;;;;;;;26.37;14.30;;;;;;;9.07;88.52;99916.00;1795649;79;21033;-52
2020/12/31 01:00:36;;;;;;;30.48;16.67;;;;;;;9.10;88.59;99922.86;1795990;79;21028;-52
2020/12/31 01:03:07;;;;;;;23.73;15.08;;;;;;;9.11;88.51;99927.25;1795837;79;20977;-52
2020/12/31 01:05:34;;;;;;;25.25;14.03;;;;;;;9.08;88.41;99932.72;1796012;78;20993;-52
2020/12/31 01:08:02;;;;;;;31.07;14.47;;;;;;;9.06;88.50;99929.98;1794583;79;21138;-51
2020/12/31 01:10:30;;;;;;;31.70;15.28;;;;;;;9.06;88.52;99932.72;1783753;79;21069;-52
2020/12/31 01:12:57;;;;;;;23.73;14.55;;;;;;;9.07;88.52;99922.05;1783934;80;20973;-52
2020/12/31 01:15:24;;;;;;;25.02;14.35;;;;;;;9.06;88.55;99913.54;1783893;80;21140;-52
2020/12/31 01:17:52;;;;;;;22.98;13.38;;;;;;;9.07;88.58;99917.94;1783883;80;20978;-52
2020/12/31 01:20:19;;;;;;;28.55;14.73;;;;;;;9.05;88.57;99925.06;1783842;80;22241;-52
2020/12/31 01:22:46;;;;;;;26.17;16.05;;;;;;;9.06;88.55;99914.91;1783852;80;21583;-52
2020/12/31 01:25:14;;;;;;;33.58;16.90;;;;;;;9.07;88.58;99917.94;1783883;80;21022;-52
2020/12/31 01:27:41;;;;;;;29.95;14.98;;;;;;;9.08;88.52;99919.58;1783685;80;21021;-52
2020/12/31 01:30:08;;;;;;;26.40;14.47;;;;;;;9.08;88.52;99920.95;1783927;80;21631;-52
2020/12/31 01:32:36;;;;;;;26.37;15.10;;;;;;;9.09;88.53;99919.86;1783947;79;21378;-52
2020/12/31 01:35:07;;;;;;;33.85;16.25;;;;;;;9.10;88.48;99913.27;1783895;80;20962;-52
2020/12/31 01:37:35;;;;;;;28.55;15.05;;;;;;;9.13;88.47;99918.19;1783920;80;20966;-52
2020/12/31 01:40:03;;;;;;;26.75;14.38;;;;;;;9.14;88.27;99922.02;1783734;79;21572;-52
2020/12/31 01:42:31;;;;;;;29.67;14.93;;;;;;;9.12;88.28;99917.94;1783835;80;21009;-52
2020/12/31 01:44:58;;;;;;;25.50;14.87;;;;;;;9.12;88.29;99924.78;1783845;80;21272;-52
2020/12/31 01:47:26;;;;;;;22.35;13.58;;;;;;;9.12;88.29;99925.59;1783872;80;21022;-52
2020/12/31 01:49:53;;;;;;;31.07;15.83;;;;;;;9.14;88.25;99925.32;1783881;80;20974;-52
2020/12/31 01:52:21;;;;;;;28.65;14.45;;;;;;;9.16;88.23;99919.03;1783742;79;21049;-52
2020/12/31 01:54:48;;;;;;;23.05;14.68;;;;;;;9.15;88.30;99918.75;1783985;80;21017;-52
2020/12/31 01:57:16;;;;;;;27.22;14.23;;;;;;;9.14;88.31;99925.32;1753649;80;21915;-52
2020/12/31 01:59:45;;;;;;;27.07;13.20;;;;;;;9.12;88.45;99915.20;1783926;80;21037;-52
2020/12/31 02:02:12;;;;;;;25.62;13.22;;;;;;;9.11;88.58;99913.55;1784167;80;21045;-52
2020/12/31 02:04:40;;;;;;;27.50;15.60;;;;;;;9.12;88.70;99920.12;1783910;80;21041;-52
2020/12/31 02:07:07;;;;;;;22.98;14.47;;;;;;;9.11;88.80;99905.33;1784142;79;21568;-52
2020/12/31 02:09:35;;;;;;;28.45;15.58;;;;;;;9.11;88.96;99908.87;1783867;79;21359;-52
2020/12/31 02:12:04;;;;;;;23.27;14.95;;;;;;;9.08;89.04;99908.06;1783816;80;21587;-51
2020/12/31 02:14:31;;;;;;;23.98;13.83;;;;;;;9.07;89.18;99904.23;1784035;80;21006;-52
2020/12/31 02:16:59;;;;;;;23.75;14.58;;;;;;;9.05;89.33;99905.08;1783925;80;21017;-52
2020/12/31 02:19:26;;;;;;;28.90;15.23;;;;;;;9.04;89.50;99901.49;1784030;80;20998;-52
2020/12/31 02:21:54;;;;;;;22.42;13.90;;;;;;;9.04;89.63;99891.09;1783897;80;21372;-52
2020/12/31 02:24:22;;;;;;;23.22;12.50;;;;;;;9.02;89.72;99887.27;1783955;80;20951;-52
2020/12/31 02:26:49;;;;;;;27.40;14.83;;;;;;;9.01;89.86;99895.20;1783719;80;21040;-52
2020/12/31 02:29:17;;;;;;;23.83;14.23;;;;;;;8.99;89.96;99898.22;1784010;80;22075;-51
2020/12/31 02:31:47;;;;;;;26.48;14.68;;;;;;;9.01;90.13;99897.13;1783992;79;21009;-52
2020/12/31 02:34:14;;;;;;;20.10;13.68;;;;;;;9.05;90.25;99896.30;1783817;80;21368;-52
2020/12/31 02:36:42;;;;;;;24.50;13.25;;;;;;;9.06;90.21;99888.36;1783994;79;21528;-52
2020/12/31 02:39:13;;;;;;;20.88;13.18;;;;;;;9.06;90.20;99888.89;1783874;80;21009;-52
2020/12/31 02:41:41;;;;;;;23.77;13.10;;;;;;;9.06;90.22;99888.89;1783875;80;20982;-52
2020/12/31 02:44:09;;;;;;;19.67;13.00;;;;;;;9.08;90.21;99890.81;1784024;80;21053;-52
2020/12/31 02:46:37;;;;;;;23.77;13.78;;;;;;;9.11;90.28;99882.85;1783948;80;21194;-52
2020/12/31 02:49:05;;;;;;;18.75;13.13;;;;;;;9.14;90.20;99886.96;1783901;80;21552;-52
2020/12/31 02:51:32;;;;;;;24.00;14.80;;;;;;;9.10;90.13;99894.09;1783989;80;21009;-51
2020/12/31 02:54:00;;;;;;;19.85;12.85;;;;;;;9.06;90.34;99892.47;1783970;80;21037;-52
2020/12/31 02:56:27;;;;;;;20.55;12.65;;;;;;;9.08;90.47;99897.67;1784030;80;21009;-52
2020/12/31 02:58:55;;;;;;;26.17;13.78;;;;;;;9.09;90.44;99891.10;1784057;80;21198;-52
2020/12/31 03:01:22;;;;;;;22.48;15.20;;;;;;;9.10;90.50;99892.72;1783937;80;21049;-52
2020/12/31 03:03:50;;;;;;;21.30;12.13;;;;;;;9.08;90.47;99882.03;1783948;79;20974;-52
2020/12/31 03:06:19;;;;;;;23.32;13.60;;;;;;;9.05;90.58;99876.31;1784001;79;20962;-52
2020/12/31 03:08:46;;;;;;;22.80;13.10;;;;;;;8.98;90.66;99867.80;1785187;79;21021;-51
2020/12/31 03:11:21;;;;;;;18.95;11.10;;;;;;;8.96;90.80;99866.47;1798548;79;22169;-52
2020/12/31 03:13:49;;;;;;;20.77;12.78;;;;;;;8.97;90.94;99873.56;1798460;79;21009;-52
2020/12/31 03:16:18;;;;;;;22.50;14.00;;;;;;;8.97;90.99;99865.34;1798607;79;21469;-52
2020/12/31 03:18:46;;;;;;;24.37;15.10;;;;;;;8.94;91.00;99854.39;1798450;79;21607;-52
2020/12/31 03:21:15;;;;;;;20.20;13.08;;;;;;;8.92;90.99;99856.59;1798412;79;21060;-52
2020/12/31 03:23:42;;;;;;;20.23;12.60;;;;;;;8.90;91.09;99854.70;1798538;79;22106;-52
2020/12/31 03:26:11;;;;;;;21.48;13.75;;;;;;;8.88;91.08;99856.06;1779432;80;21608;-52
2020/12/31 03:28:38;;;;;;;24.87;13.05;;;;;;;8.84;91.10;99853.04;1779549;80;20990;-52
2020/12/31 03:31:06;;;;;;;24.07;14.40;;;;;;;8.85;91.30;99842.92;1779527;80;21125;-51
2020/12/31 03:33:34;;;;;;;22.67;15.08;;;;;;;8.88;91.28;99845.91;1779466;80;21033;-51
2020/12/31 03:36:01;;;;;;;27.13;13.98;;;;;;;8.86;91.17;99843.17;1779533;80;21316;-51
2020/12/31 03:38:29;;;;;;;25.05;14.35;;;;;;;8.84;91.27;99840.72;1779511;80;20990;-52
2020/12/31 03:40:56;;;;;;;21.33;14.40;;;;;;;8.85;91.28;99847.84;1779553;80;21035;-52
2020/12/31 03:43:24;;;;;;;21.55;14.25;;;;;;;8.87;91.22;99853.85;1779410;80;21017;-52
2020/12/31 03:45:51;;;;;;;26.02;16.00;;;;;;;8.87;91.29;99856.59;1779488;80;21054;-52
2020/12/31 03:48:18;;;;;;;28.32;15.28;;;;;;;8.87;91.31;99844.27;1779552;80;23662;-53
2020/12/31 03:50:45;;;;;;;23.92;15.80;;;;;;;8.85;91.24;99849.21;1779135;80;21594;-52
2020/12/31 03:53:13;;;;;;;22.10;13.15;;;;;;;8.83;91.34;99850.05;1779600;80;20990;-52
2020/12/31 03:55:40;;;;;;;26.70;15.65;;;;;;;8.81;91.34;99849.48;1779362;80;21029;-52
2020/12/31 03:58:09;;;;;;;25.65;14.90;;;;;;;8.76;91.34;99841.27;1779555;80;21603;-53
2020/12/31 04:00:36;;;;;;;24.70;16.10;;;;;;;8.76;91.40;99839.89;1779618;80;21259;-52
2020/12/31 04:03:04;;;;;;;29.32;15.65;;;;;;;8.74;91.34;99838.00;1779357;80;20985;-52
2020/12/31 04:05:31;;;;;;;26.00;16.00;;;;;;;8.74;91.43;99846.21;1779561;79;20986;-52
2020/12/31 04:07:58;;;;;;;33.05;16.57;;;;;;;8.73;91.42;99839.09;1760799;81;20984;-52
2020/12/31 04:10:28;;;;;;;30.72;16.55;;;;;;;8.72;91.48;99842.38;1779400;80;21029;-52
2020/12/31 04:12:55;;;;;;;23.32;15.13;;;;;;;8.73;91.47;99845.41;1779010;80;21267;-52
2020/12/31 04:15:23;;;;;;;26.23;16.73;;;;;;;8.72;91.48;99842.38;1779465;80;21049;-52
2020/12/31 04:17:50;;;;;;;32.75;16.95;;;;;;;8.71;91.44;99844.03;1779285;80;21343;-52
2020/12/31 04:20:17;;;;;;;24.12;16.50;;;;;;;8.70;91.43;99842.38;1779448;80;21002;-52
2020/12/31 04:22:45;;;;;;;31.33;15.98;;;;;;;8.68;91.36;99844.02;1760878;81;21032;-52
2020/12/31 04:25:12;;;;;;;26.48;16.90;;;;;;;8.68;91.30;99851.42;1730647;82;21272;-53
2020/12/31 04:27:42;;;;;;;26.95;16.02;;;;;;;8.65;91.19;99840.47;1779195;80;21093;-53
2020/12/31 04:30:10;;;;;;;20.45;14.07;;;;;;;8.64;91.22;99861.56;1760870;81;21008;-52
2020/12/31 04:32:38;;;;;;;27.55;14.98;;;;;;;8.63;91.21;99863.18;1779372;80;21046;-52
2020/12/31 04:35:05;;;;;;;24.82;16.52;;;;;;;8.62;91.16;99850.05;1761057;81;21008;-52
2020/12/31 04:37:33;;;;;;;33.13;16.87;;;;;;;8.63;91.19;99861.28;1730675;82;22181;-52
2020/12/31 04:40:00;;;;;;;38.88;19.90;;;;;;;8.63;91.08;99865.39;1778992;80;21061;-52
2020/12/31 04:42:38;;;;;;;38.15;21.52;;;;;;;8.64;90.93;99867.04;1730662;82;21044;-52
2020/12/31 04:45:06;;;;;;;27.73;16.82;;;;;;;8.63;90.72;99883.19;1760713;81;21032;-53
2020/12/31 04:47:46;;;;;;;29.90;17.55;;;;;;;8.63;90.73;99880.45;1779292;80;20966;-52
2020/12/31 04:50:14;;;;;;;26.00;16.35;;;;;;;8.62;90.57;99882.09;1736026;81;21390;-52
2020/12/31 04:52:41;;;;;;;32.20;18.35;;;;;;;8.61;90.38;99881.25;1730955;80;21753;-53
2020/12/31 04:55:09;;;;;;;36.42;18.67;;;;;;;8.62;90.29;99880.16;1779534;80;21002;-52
2020/12/31 04:57:36;;;;;;;29.65;18.60;;;;;;;8.65;89.98;99889.19;1779253;80;21110;-52
2020/12/31 05:00:04;;;;;;;33.92;19.42;;;;;;;8.67;89.73;99893.58;1760808;81;21012;-52
2020/12/31 05:02:32;;;;;;;26.07;17.32;;;;;;;8.65;89.49;99886.45;1779194;80;21662;-52
2020/12/31 05:05:02;;;;;;;35.40;18.27;;;;;;;8.65;89.39;99883.72;1760848;81;21728;-53
2020/12/31 05:07:30;;;;;;;27.90;17.82;;;;;;;8.68;89.32;99895.23;1779323;80;21029;-52
2020/12/31 05:10:11;;;;;;;29.05;17.42;;;;;;;8.70;88.98;99887.55;1757210;81;20977;-52
2020/12/31 05:12:38;;;;;;;31.10;17.25;;;;;;;8.68;88.78;99879.61;1731091;82;20998;-52
2020/12/31 05:15:06;;;;;;;31.10;19.15;;;;;;;8.68;88.62;99897.97;1731355;82;21607;-52
2020/12/31 05:17:35;;;;;;;38.08;18.27;;;;;;;8.64;88.37;99898.52;1783881;80;21255;-52
2020/12/31 05:20:14;;;;;;;30.23;17.37;;;;;;;8.62;88.20;99893.84;1783831;80;21029;-53
2020/12/31 05:22:41;;;;;;;24.37;16.57;;;;;;;8.62;88.16;99890.30;1783742;80;21041;-52
2020/12/31 05:25:08;;;;;;;26.05;16.35;;;;;;;8.60;87.93;99894.69;1784017;80;21014;-52
2020/12/31 05:27:36;;;;;;;25.37;17.48;;;;;;;8.57;87.88;99900.68;1783816;80;21199;-53
2020/12/31 05:30:08;;;;;;;29.48;17.05;;;;;;;8.58;87.73;99906.44;1784009;80;21001;-52
2020/12/31 05:32:38;;;;;;;31.87;16.00;;;;;;;8.57;87.52;99915.73;1783999;80;20978;-52
2020/12/31 05:35:18;;;;;;;33.00;18.98;;;;;;;8.59;87.48;99913.56;1784092;80;21100;-52
2020/12/31 05:37:48;;;;;;;31.80;17.15;;;;;;;8.60;87.37;99915.74;1784017;80;20926;-52
2020/12/31 05:40:15;;;;;;;28.47;19.15;;;;;;;8.62;87.12;99915.75;1784054;80;21655;-52
2020/12/31 05:42:43;;;;;;;24.05;16.40;;;;;;;8.63;87.03;99917.41;1783895;80;20982;-52
2020/12/31 05:45:18;;;;;;;26.90;15.32;;;;;;;8.63;86.97;99916.03;1783984;80;21033;-52
2020/12/31 05:47:51;;;;;;;28.17;17.35;;;;;;;8.64;86.82;99914.11;1783960;80;21021;-52
2020/12/31 05:50:24;;;;;;;30.10;17.82;;;;;;;8.65;86.76;99927.52;1784044;80;21587;-52
2020/12/31 05:52:53;;;;;;;29.45;18.67;;;;;;;8.63;86.71;99931.09;1783939;80;21198;-52
2020/12/31 05:55:23;;;;;;;31.80;17.35;;;;;;;8.64;86.75;99930.01;1784106;80;21029;-52
2020/12/31 05:57:54;;;;;;;29.02;17.48;;;;;;;8.63;86.67;99932.98;1783929;80;21025;-52
2020/12/31 06:00:28;;;;;;;27.32;16.52;;;;;;;8.63;86.75;99933.83;1783993;80;21606;-52
2020/12/31 06:03:00;;;;;;;31.07;18.62;;;;;;;8.65;86.70;99939.84;1784001;80;21001;-52
2020/12/31 06:05:29;;;;;;;35.25;20.15;;;;;;;8.65;86.55;99943.14;1783962;79;21229;-52
2020/12/31 06:07:58;;;;;;;26.17;17.42;;;;;;;8.63;86.45;99954.36;1783813;80;21025;-52
2020/12/31 06:10:31;;;;;;;25.80;16.80;;;;;;;8.61;86.37;99951.05;1783758;80;21010;-52
2020/12/31 06:13:00;;;;;;;27.87;16.55;;;;;;;8.61;86.44;99957.91;1783951;80;21017;-52
2020/12/31 06:15:33;;;;;;;27.67;19.57;;;;;;;8.62;86.52;99955.45;1784149;80;21548;-52
2020/12/31 06:18:03;;;;;;;29.87;18.85;;;;;;;8.62;86.54;99953.27;1783951;80;21595;-52
2020/12/31 06:20:32;;;;;;;27.32;17.20;;;;;;;8.61;86.61;99953.80;1783944;80;21703;-52
2020/12/31 06:23:08;;;;;;;31.10;18.95;;;;;;;8.59;86.61;99957.36;1783931;80;21171;-52
2020/12/31 06:25:45;;;;;;;30.77;20.62;;;;;;;8.57;86.74;99956.80;1784077;80;21017;-52
2020/12/31 06:28:21;;;;;;;36.08;20.77;;;;;;;8.58;86.85;99955.71;1784039;80;21012;-53
2020/12/31 06:30:51;;;;;;;;;;;;;;;8.56;86.87;99955.17;1786652;80;21268;-52
2020/12/31 06:33:44;;;;;;;32.50;18.40;;;;;;;8.54;87.03;99960.08;1783949;80;20186;-52
2020/12/31 06:36:35;;;;;;;30.17;18.67;;;;;;;8.59;87.16;99950.52;1888882;76;22627;-51
2020/12/31 06:39:03;;;;;;;37.17;22.42;;;;;;;8.51;87.25;99952.42;1859691;77;20997;-51
2020/12/31 06:41:41;;;;;;;34.43;19.37;;;;;;;8.50;87.41;99954.87;1821823;78;21197;-51
2020/12/31 06:44:13;;;;;;;38.05;20.32;;;;;;;8.51;87.47;99953.78;1821914;78;21055;-51
2020/12/31 06:46:47;;;;;;;33.83;19.67;;;;;;;8.48;87.51;99946.93;1821925;78;21001;-51
2020/12/31 06:49:15;;;;;;;29.63;19.45;;;;;;;8.48;87.66;99957.07;1821808;78;20992;-52
2020/12/31 06:51:43;;;;;;;32.78;19.57;;;;;;;8.47;87.80;99955.42;1821941;78;21019;-52
2020/12/31 06:54:11;;;;;;;41.53;20.80;;;;;;;8.48;87.84;99962.55;1821969;78;21149;-52
2020/12/31 06:56:50;;;;;;;37.17;18.07;;;;;;;8.48;87.93;99965.28;1821773;78;21019;-52
2020/12/31 06:59:33;;;;;;;34.40;19.00;;;;;;;8.50;87.91;99969.92;1822015;78;20991;-52
2020/12/31 07:02:13;;;;;;;30.77;20.75;;;;;;;8.51;87.88;99971.58;1821923;78;21108;-52
2020/12/31 07:04:41;;;;;;;35.25;19.60;;;;;;;8.53;87.94;99966.67;1820379;78;20980;-52
2020/12/31 07:07:27;;;;;;;27.58;19.12;;;;;;;8.58;87.89;99972.69;1792566;78;21358;-52
2020/12/31 07:09:59;;;;;;;43.47;20.40;;;;;;;8.59;87.80;99972.98;1789727;80;21038;-53
2020/12/31 07:12:41;;;;;;;30.40;19.57;;;;;;;8.58;87.75;99969.40;1789520;80;21644;-53
2020/12/31 07:15:09;;;;;;;39.03;20.60;;;;;;;8.60;87.81;99968.59;1789495;80;21003;-53
2020/12/31 07:17:44;;;;;;;32.60;22.05;;;;;;;8.62;87.79;99965.03;1789731;80;21002;-52
2020/12/31 07:20:16;;;;;;;37.58;21.52;;;;;;;8.61;87.78;99963.94;1789926;80;21412;-52
2020/12/31 07:22:47;;;;;;;34.30;20.00;;;;;;;8.60;87.86;99965.86;1789678;80;21565;-52
2020/12/31 07:25:18;;;;;;;33.20;19.77;;;;;;;8.59;87.99;99977.90;1789770;80;21588;-52
2020/12/31 07:27:47;;;;;;;28.90;19.15;;;;;;;8.57;88.06;99980.06;1789445;80;21010;-52
2020/12/31 07:30:17;;;;;;;31.65;18.75;;;;;;;8.56;88.26;99993.50;1789568;80;21026;-52
2020/12/31 07:32:55;;;;;;;28.35;19.55;;;;;;;8.56;88.28;99984.45;1789444;80;21055;-52
2020/12/31 07:35:28;;;;;;;31.45;19.95;;;;;;;8.53;88.31;99983.63;1789485;79;21003;-52
2020/12/31 07:38:01;;;;;;;32.73;19.80;;;;;;;8.52;88.38;99982.00;1789371;80;21441;-52
2020/12/31 07:40:32;;;;;;;30.88;19.45;;;;;;;8.52;88.54;99986.11;1789501;80;20983;-52
2020/12/31 07:42:59;;;;;;;31.00;18.77;;;;;;;8.56;88.52;99989.92;1789511;80;21030;-51
2020/12/31 07:45:27;;;;;;;32.03;21.15;;;;;;;8.56;88.53;99993.50;1789473;80;21147;-52
2020/12/31 07:47:55;;;;;;;31.68;18.52;;;;;;;8.56;88.51;100001.71;1788896;80;21606;-52
2020/12/31 07:50:23;;;;;;;30.97;18.82;;;;;;;8.54;88.51;99993.48;1789021;80;21605;-52
2020/12/31 07:52:51;;;;;;;32.93;19.55;;;;;;;8.53;88.61;100004.99;1788863;80;21007;-52
2020/12/31 07:55:18;;;;;;;27.80;17.45;;;;;;;8.55;88.71;100007.45;1789020;80;21015;-52
2020/12/31 07:57:46;;;;;;;33.60;17.80;;;;;;;8.58;88.69;100008.28;1788666;80;21456;-52
2020/12/31 08:00:19;;;;;;;29.52;19.20;;;;;;;8.58;88.72;100004.98;1758513;80;21075;-52
2020/12/31 08:02:54;;;;;;;30.85;18.75;;;;;;;8.58;88.66;100013.20;1788495;80;21209;-53
2020/12/31 08:05:25;;;;;;;26.80;17.87;;;;;;;8.58;88.68;100011.83;1789497;79;26705;-52
2020/12/31 08:07:54;;;;;;;33.58;19.67;;;;;;;8.56;88.64;100008.55;1782074;80;21073;-53
2020/12/31 08:10:24;;;;;;;31.73;19.55;;;;;;;8.58;88.85;100003.62;1778239;79;21537;-53
2020/12/31 08:13:05;;;;;;;36.85;19.90;;;;;;;8.62;88.70;100010.20;1780073;80;21026;-53
2020/12/31 08:15:32;;;;;;;30.12;17.98;;;;;;;8.64;88.54;100012.14;1774450;79;21019;-53
2020/12/31 08:20:47;;;;;;;30.92;21.10;;;;;;;8.70;88.12;100006.66;1844781;76;22815;-52
2020/12/31 08:23:30;;;;;;;31.55;18.35;;;;;;;8.65;87.95;100015.69;1751454;80;21050;-51
2020/12/31 08:25:58;;;;;;;31.23;20.90;;;;;;;8.64;87.86;100009.92;1781786;80;23538;-52
2020/12/31 08:28:26;;;;;;;30.10;18.20;;;;;;;8.64;87.69;100001.19;1751083;80;20998;-52
2020/12/31 08:30:53;;;;;;;29.40;17.20;;;;;;;8.65;87.60;100000.63;1748488;81;21638;-51
2020/12/31 08:33:25;;;;;;;31.73;20.02;;;;;;;8.65;87.54;99997.33;1750100;81;21026;-51
2020/12/31 08:35:53;;;;;;;28.15;18.98;;;;;;;8.67;87.37;99998.98;1767360;81;21063;-52
2020/12/31 08:38:23;;;;;;;36.50;19.82;;;;;;;8.65;87.43;99995.97;1765741;79;21494;-52
2020/12/31 08:40:58;;;;;;;33.00;20.77;;;;;;;8.68;87.52;99993.80;1809734;77;21801;-52
2020/12/31 08:43:37;;;;;;;34.70;20.88;;;;;;;8.68;87.26;100002.01;1811223;77;20978;-52
2020/12/31 08:46:08;;;;;;;38.23;20.10;;;;;;;8.67;87.23;99987.48;1805365;79;21056;-52
2020/12/31 08:48:36;;;;;;;34.80;20.27;;;;;;;8.70;87.33;99997.07;1810200;79;21024;-52
2020/12/31 08:51:14;;;;;;;31.23;19.48;;;;;;;8.73;87.22;99991.89;1810992;79;21333;-52
2020/12/31 08:53:54;;;;;;;30.48;19.20;;;;;;;8.74;87.17;99992.70;1745111;80;21097;-52
2020/12/31 08:56:26;;;;;;;32.10;21.70;;;;;;;8.73;87.09;99997.36;1780510;79;21066;-52
2020/12/31 08:59:11;;;;;;;34.20;18.70;;;;;;;8.70;87.11;99992.96;1750146;81;21067;-52
2020/12/31 09:01:41;;;;;;;34.63;20.92;;;;;;;8.69;87.35;99991.31;1744156;81;20982;-52
2020/12/31 09:04:18;;;;;;;35.90;20.95;;;;;;;8.70;87.49;99989.67;1748287;81;21370;-52
2020/12/31 09:06:48;;;;;;;37.00;21.93;;;;;;;8.73;87.62;99993.78;1740210;80;21089;-52
2020/12/31 09:09:20;;;;;;;28.85;20.32;;;;;;;8.70;87.62;99995.70;1734590;82;21622;-52
2020/12/31 09:11:55;;;;;;;26.82;17.23;;;;;;;8.64;87.76;99989.39;1727703;81;21652;-52
2020/12/31 09:14:23;;;;;;;32.67;19.65;;;;;;;8.60;88.02;99988.28;1774541;80;21033;-52
2020/12/31 09:16:50;;;;;;;26.50;16.55;;;;;;;8.58;88.15;99994.03;1778538;80;23539;-52
2020/12/31 09:19:18;;;;;;;39.23;20.25;;;;;;;8.61;88.23;99987.20;1779215;80;21010;-52
2020/12/31 09:21:46;;;;;;;31.17;21.05;;;;;;;8.64;88.27;99992.13;1781509;79;20999;-52
2020/12/31 09:24:20;;;;;;;32.25;19.87;;;;;;;8.65;88.31;99988.31;1782479;79;21018;-52
2020/12/31 09:26:57;;;;;;;29.98;17.82;;;;;;;8.69;88.48;99987.20;1780627;79;21026;-52
2020/12/31 09:29:26;;;;;;;32.05;18.32;;;;;;;8.69;88.44;99985.31;1780786;80;21203;-52
2020/12/31 09:31:54;;;;;;;26.97;18.60;;;;;;;8.70;88.41;99992.96;1780794;80;21657;-52
2020/12/31 09:34:21;;;;;;;32.05;19.23;;;;;;;8.71;88.56;99982.30;1781078;80;21540;-52
2020/12/31 09:36:49;;;;;;;33.30;23.98;;;;;;;8.68;88.45;99993.80;1779880;80;21029;-51
2020/12/31 09:39:17;;;;;;;32.25;20.25;;;;;;;8.63;88.63;99984.48;1780553;80;21037;-52
2020/12/31 09:41:47;;;;;;;27.45;17.62;;;;;;;8.61;88.94;99986.64;1780283;80;21369;-52
2020/12/31 09:44:15;;;;;;;27.80;17.20;;;;;;;8.63;89.09;99984.48;1780164;80;21053;-52
2020/12/31 09:46:42;;;;;;;31.90;19.25;;;;;;;8.62;89.14;99977.34;1780329;80;21049;-52
2020/12/31 09:49:09;;;;;;;29.30;17.82;;;;;;;8.65;89.35;99982.83;1779717;80;20954;-52
2020/12/31 09:51:37;;;;;;;30.60;18.57;;;;;;;8.69;89.43;99977.62;1773887;80;21046;-52
2020/12/31 09:54:04;;;;;;;32.20;18.40;;;;;;;8.72;89.49;99973.80;1780572;80;22673;-52
2020/12/31 09:56:31;;;;;;;28.00;18.85;;;;;;;8.75;89.53;99969.71;1779249;80;21531;-52
2020/12/31 09:59:00;;;;;;;23.87;16.70;;;;;;;8.74;89.45;99973.53;1780137;80;21026;-52
2020/12/31 10:01:27;;;;;;;28.80;17.45;;;;;;;8.75;89.48;99962.86;1780635;79;21051;-52
2020/12/31 10:03:54;;;;;;;23.32;16.55;;;;;;;8.74;89.45;99962.58;1780881;80;21006;-52
2020/12/31 10:06:21;;;;;;;24.43;17.32;;;;;;;8.77;89.55;99964.24;1780858;79;21049;-52
2020/12/31 10:08:54;;;;;;;27.62;15.78;;;;;;;8.80;89.53;99960.11;1780157;80;20950;-52
2020/12/31 10:11:21;;;;;;;25.30;14.65;;;;;;;8.83;89.52;99965.07;1780095;80;21034;-52
2020/12/31 10:13:49;;;;;;;21.30;14.93;;;;;;;8.84;89.38;99961.21;1781972;79;20934;-52
2020/12/31 10:16:16;;;;;;;26.55;16.10;;;;;;;8.83;89.44;99960.96;1780381;79;21640;-51
2020/12/31 10:18:44;;;;;;;22.87;15.05;;;;;;;8.85;89.40;99960.12;1779803;79;21142;-52
2020/12/31 10:21:15;;;;;;;21.42;15.43;;;;;;;8.86;89.40;99949.45;1768508;80;21045;-52
2020/12/31 10:23:42;;;;;;;21.27;14.95;;;;;;;8.87;89.51;99956.55;1763621;80;21604;-53
2020/12/31 10:26:10;;;;;;;20.25;14.18;;;;;;;8.87;89.43;99945.59;1726691;82;21052;-52
2020/12/31 10:28:37;;;;;;;19.10;13.13;;;;;;;8.86;89.48;99937.66;1762966;80;20996;-51
2020/12/31 10:31:04;;;;;;;21.02;13.30;;;;;;;8.84;89.56;99943.41;1710256;83;22267;-52
2020/12/31 10:33:32;;;;;;;22.25;15.10;;;;;;;8.86;89.47;99941.77;1710329;83;22028;-52
2020/12/31 10:35:59;;;;;;;19.57;13.45;;;;;;;8.88;89.37;99952.72;1710614;83;21062;-52
2020/12/31 10:38:27;;;;;;;20.70;13.65;;;;;;;8.87;89.14;99946.97;1710580;83;20986;-52
2020/12/31 10:40:54;;;;;;;25.05;14.75;;;;;;;8.89;89.17;99953.53;1710486;83;21049;-53
2020/12/31 10:43:21;;;;;;;20.57;14.53;;;;;;;8.89;89.15;99940.69;1710576;83;23684;-52
2020/12/31 10:45:49;;;;;;;19.35;13.03;;;;;;;8.91;89.19;99931.63;1710409;83;21529;-53
2020/12/31 10:48:16;;;;;;;20.05;13.28;;;;;;;8.94;89.16;99921.49;1710498;83;21069;-52
2020/12/31 10:50:44;;;;;;;18.55;14.28;;;;;;;8.96;89.13;99922.61;1710449;83;21771;-52
2020/12/31 10:53:13;;;;;;;23.65;15.53;;;;;;;9.00;89.12;99922.31;1710560;83;21092;-52
2020/12/31 10:55:40;;;;;;;24.95;15.50;;;;;;;9.02;89.19;99924.24;1710364;83;21051;-52
2020/12/31 10:58:07;;;;;;;21.33;14.68;;;;;;;9.06;89.20;99918.48;1710478;83;21580;-51
2020/12/31 11:00:35;;;;;;;19.00;13.95;;;;;;;9.06;89.13;99923.13;1710505;83;21050;-53
2020/12/31 11:03:03;;;;;;;21.57;15.20;;;;;;;9.07;89.21;99922.85;1710281;83;21003;-52
2020/12/31 11:05:30;;;;;;;18.42;14.85;;;;;;;9.01;89.10;99922.59;1710637;83;20991;-52
2020/12/31 11:07:58;;;;;;;21.45;16.05;;;;;;;8.96;89.28;99922.06;1710462;83;21604;-52
2020/12/31 11:10:28;;;;;;;22.60;15.40;;;;;;;8.97;89.49;99925.61;1710668;82;21045;-52
2020/12/31 11:12:56;;;;;;;18.73;12.90;;;;;;;8.94;89.51;99913.28;1710450;83;21046;-52
2020/12/31 11:15:23;;;;;;;21.30;14.95;;;;;;;8.90;89.58;99910.84;1710508;83;21066;-53
2020/12/31 11:17:51;;;;;;;22.27;14.13;;;;;;;8.91;89.72;99920.68;1710449;83;21569;-52
2020/12/31 11:20:19;;;;;;;23.42;15.10;;;;;;;8.89;89.79;99921.52;1710370;83;21287;-52
2020/12/31 11:22:48;;;;;;;29.65;17.25;;;;;;;8.88;89.88;99922.60;1766833;80;21000;-53
2020/12/31 11:25:15;;;;;;;23.55;16.25;;;;;;;8.87;89.93;99920.95;1747640;81;21016;-52
2020/12/31 11:27:42;;;;;;;28.12;17.40;;;;;;;8.86;89.93;99919.33;1766957;81;21740;-52
2020/12/31 11:30:10;;;;;;;23.47;16.50;;;;;;;8.84;90.01;99924.24;1767104;81;21602;-52
2020/12/31 11:32:38;;;;;;;28.45;18.23;;;;;;;8.85;90.10;99922.34;1767122;81;21004;-52
2020/12/31 11:35:06;;;;;;;24.72;17.82;;;;;;;8.87;90.09;99918.77;1767061;81;20997;-52
2020/12/31 11:37:33;;;;;;;21.52;15.40;;;;;;;8.84;90.03;99921.50;1767204;81;21067;-52